createdAt,value
2023-04-13T00:00:44.429Z,20.17
2023-04-13T00:03:18.870Z,20.23
2023-04-13T00:05:46.660Z,20.42
2023-04-13T00:08:13.733Z,21.20
2023-04-13T00:10:41.876Z,20.45
2023-04-13T00:13:10.241Z,22.17
2023-04-13T00:15:41.281Z,21.10
2023-04-13T00:18:08.960Z,21.48
2023-04-13T00:20:36.389Z,19.98
2023-04-13T00:23:03.417Z,20.77
2023-04-13T00:25:30.756Z,18.80
2023-04-13T00:27:57.597Z,20.23
2023-04-13T00:30:24.729Z,20.70
2023-04-13T00:32:52.094Z,18.70
2023-04-13T00:35:20.168Z,19.98
2023-04-13T00:37:49.893Z,19.35
2023-04-13T00:40:18.063Z,18.15
2023-04-13T00:42:46.226Z,18.75
2023-04-13T00:45:13.817Z,18.30
2023-04-13T00:47:41.959Z,18.45
2023-04-13T00:50:09.355Z,19.02
2023-04-13T00:52:38.368Z,18.33
2023-04-13T00:55:06.371Z,17.75
2023-04-13T00:57:33.958Z,19.75
2023-04-13T01:00:10.446Z,17.30
2023-04-13T01:02:42.450Z,17.90
2023-04-13T01:05:12.696Z,18.75
2023-04-13T01:07:47.384Z,19.95
2023-04-13T01:10:26.837Z,20.45
2023-04-13T01:13:27.258Z,19.80
2023-04-13T01:16:12.542Z,18.60
2023-04-13T01:18:40.445Z,19.95
2023-04-13T01:21:08.395Z,19.90
2023-04-13T01:24:05.188Z,19.58
2023-04-13T01:26:58.522Z,19.88
2023-04-13T01:29:26.196Z,20.08
2023-04-13T01:31:54.390Z,20.65
2023-04-13T01:34:23.314Z,20.83
2023-04-13T01:36:50.499Z,20.45
2023-04-13T01:39:20.984Z,18.90
2023-04-13T01:41:48.035Z,20.40
2023-04-13T01:44:14.905Z,19.48
2023-04-13T01:46:43.053Z,18.80
2023-04-13T01:49:10.343Z,19.10
2023-04-13T01:51:38.371Z,19.80
2023-04-13T01:54:12.806Z,19.90
2023-04-13T01:56:40.266Z,20.08
2023-04-13T01:59:07.128Z,20.60
2023-04-13T02:01:34.187Z,19.83
2023-04-13T02:04:03.110Z,19.52
2023-04-13T02:06:30.717Z,21.52
2023-04-13T02:08:57.630Z,20.05
2023-04-13T02:11:25.526Z,21.33
2023-04-13T02:13:53.171Z,21.35
2023-04-13T02:16:20.377Z,22.10
2023-04-13T02:18:47.347Z,20.90
2023-04-13T02:21:14.537Z,22.25
2023-04-13T02:23:41.376Z,21.25
2023-04-13T02:26:08.928Z,21.25
2023-04-13T02:28:35.829Z,20.83
2023-04-13T02:31:03.837Z,21.55
2023-04-13T02:33:31.848Z,22.15
2023-04-13T02:35:59.645Z,21.83
2023-04-13T02:38:28.102Z,21.50
2023-04-13T02:40:56.076Z,19.80
2023-04-13T02:43:22.890Z,19.70
2023-04-13T02:45:50.333Z,21.50
2023-04-13T02:48:17.176Z,20.33
2023-04-13T02:50:44.232Z,19.42
2023-04-13T02:53:11.042Z,20.65
2023-04-13T02:55:39.077Z,21.40
2023-04-13T02:58:06.626Z,20.17
2023-04-13T03:00:33.824Z,20.88
2023-04-13T03:03:03.481Z,21.15
2023-04-13T03:05:33.578Z,21.17
2023-04-13T03:08:00.371Z,21.83
2023-04-13T03:10:27.429Z,21.08
2023-04-13T03:12:54.177Z,20.80
2023-04-13T03:15:21.421Z,20.30
2023-04-13T03:17:48.290Z,20.83
2023-04-13T03:20:16.951Z,21.20
2023-04-13T03:22:45.289Z,20.75
2023-04-13T03:25:12.727Z,19.58
2023-04-13T03:27:39.610Z,21.33
2023-04-13T03:30:07.825Z,21.25
2023-04-13T03:32:34.789Z,19.20
2023-04-13T03:35:01.957Z,19.83
2023-04-13T03:37:32.349Z,18.90
2023-04-13T03:39:59.438Z,19.48
2023-04-13T03:42:26.275Z,18.95
2023-04-13T03:44:53.373Z,20.15
2023-04-13T03:47:20.457Z,20.25
2023-04-13T03:49:47.561Z,21.52
2023-04-13T03:52:14.328Z,21.58
2023-04-13T03:54:41.541Z,22.70
2023-04-13T03:57:08.396Z,22.23
2023-04-13T03:59:35.666Z,22.67
2023-04-13T04:02:05.355Z,21.58
2023-04-13T04:04:32.504Z,23.25
2023-04-13T04:06:59.440Z,24.98
2023-04-13T04:09:27.520Z,24.58
2023-04-13T04:11:54.304Z,23.30
2023-04-13T04:14:22.917Z,25.33
2023-04-13T04:16:49.718Z,25.48
2023-04-13T04:19:16.863Z,25.48
2023-04-13T04:21:47.103Z,25.20
2023-04-13T04:24:20.710Z,24.60
2023-04-13T04:26:50.173Z,25.83
2023-04-13T04:29:17.873Z,24.85
2023-04-13T04:31:44.749Z,26.02
2023-04-13T04:34:11.854Z,27.05
2023-04-13T04:36:41.716Z,24.65
2023-04-13T04:39:10.123Z,25.98
2023-04-13T04:41:37.988Z,25.63
2023-04-13T04:44:08.169Z,26.15
2023-04-13T04:46:38.654Z,25.73
2023-04-13T04:49:06.526Z,25.33
2023-04-13T04:51:34.109Z,25.55
2023-04-13T04:54:02.301Z,25.52
2023-04-13T04:56:29.403Z,25.00
2023-04-13T04:58:56.557Z,25.25
2023-04-13T05:01:26.546Z,26.33
2023-04-13T05:03:53.926Z,26.67
2023-04-13T05:06:20.769Z,25.65
2023-04-13T05:08:47.879Z,25.75
2023-04-13T05:11:14.681Z,25.83
2023-04-13T05:13:41.854Z,24.45
2023-04-13T05:16:10.716Z,27.13
2023-04-13T05:18:47.701Z,24.83
2023-04-13T05:21:15.044Z,24.50
2023-04-13T05:23:42.453Z,25.52
2023-04-13T05:26:10.213Z,26.13
2023-04-13T05:28:37.295Z,25.17
2023-04-13T05:31:08.746Z,27.48
2023-04-13T05:33:36.036Z,25.50
2023-04-13T05:36:03.551Z,26.42
2023-04-13T05:38:31.729Z,25.73
2023-04-13T05:40:58.759Z,26.42
2023-04-13T05:43:26.774Z,26.38
2023-04-13T05:45:53.646Z,27.15
2023-04-13T05:48:21.557Z,26.25
2023-04-13T05:50:48.355Z,28.20
2023-04-13T05:53:15.696Z,27.70
2023-04-13T05:55:43.035Z,27.08
2023-04-13T05:58:11.146Z,28.33
2023-04-13T06:00:38.866Z,28.63
2023-04-13T06:03:07.100Z,27.52
2023-04-13T06:05:35.576Z,26.05
2023-04-13T06:08:03.028Z,26.48
2023-04-13T06:10:29.811Z,26.65
2023-04-13T06:12:56.907Z,25.75
2023-04-13T06:15:23.963Z,26.35
2023-04-13T06:17:52.399Z,25.15
2023-04-13T06:20:20.322Z,25.27
2023-04-13T06:22:47.817Z,26.67
2023-04-13T06:25:15.072Z,25.92
2023-04-13T06:27:43.568Z,22.98
2023-04-13T06:30:10.886Z,24.15
2023-04-13T06:32:38.751Z,24.55
2023-04-13T06:35:06.109Z,23.15
2023-04-13T06:37:35.699Z,22.92
2023-04-13T06:40:15.927Z,19.75
2023-04-13T06:42:43.676Z,19.08
2023-04-13T06:45:11.264Z,19.38
2023-04-13T06:47:41.106Z,18.27
2023-04-13T06:50:09.494Z,18.30
2023-04-13T06:52:37.334Z,16.45
2023-04-13T06:55:04.919Z,15.82
2023-04-13T06:57:32.083Z,15.98
2023-04-13T06:59:58.851Z,13.95
2023-04-13T07:02:26.662Z,16.52
2023-04-13T07:04:53.751Z,13.05
2023-04-13T07:07:21.082Z,15.50
2023-04-13T07:09:47.856Z,12.07
2023-04-13T07:12:14.991Z,12.00
2023-04-13T07:14:41.851Z,12.48
2023-04-13T07:17:10.165Z,11.15
2023-04-13T07:19:39.077Z,9.85
2023-04-13T07:22:06.147Z,8.88
2023-04-13T07:24:33.961Z,9.43
2023-04-13T07:27:01.413Z,9.32
2023-04-13T07:29:28.262Z,9.48
2023-04-13T07:32:02.432Z,9.27
2023-04-13T07:34:29.715Z,8.10
2023-04-13T07:36:56.776Z,7.80
2023-04-13T07:39:23.601Z,7.85
2023-04-13T07:41:51.219Z,7.13
2023-04-13T07:44:18.037Z,7.22
2023-04-13T07:46:45.129Z,6.78
2023-04-13T07:49:11.959Z,6.85
2023-04-13T07:51:39.010Z,5.70
2023-04-13T07:54:05.797Z,6.00
2023-04-13T07:56:32.944Z,6.13
2023-04-13T07:58:59.956Z,6.57
2023-04-13T08:01:27.696Z,6.40
2023-04-13T08:03:54.629Z,5.70
2023-04-13T08:06:22.252Z,5.32
2023-04-13T08:08:49.169Z,5.40
2023-04-13T08:11:16.775Z,5.30
2023-04-13T08:13:43.709Z,5.95
2023-04-13T08:16:11.344Z,5.25
2023-04-13T08:18:38.431Z,5.25
2023-04-13T08:21:17.676Z,4.75
2023-04-13T08:23:44.599Z,4.95
2023-04-13T08:26:18.804Z,4.50
2023-04-13T08:28:48.494Z,5.13
2023-04-13T08:31:15.963Z,4.40
2023-04-13T08:33:43.666Z,4.55
2023-04-13T08:36:10.834Z,5.25
2023-04-13T08:38:37.700Z,4.10
2023-04-13T08:41:04.934Z,4.57
2023-04-13T08:43:33.409Z,4.75
2023-04-13T08:46:00.800Z,4.43
2023-04-13T08:48:30.285Z,4.88
2023-04-13T08:51:01.699Z,3.70
2023-04-13T08:53:29.964Z,4.93
2023-04-13T08:55:58.179Z,4.25
2023-04-13T08:58:25.031Z,3.85
2023-04-13T09:00:52.246Z,4.38
2023-04-13T09:03:23.506Z,4.28
2023-04-13T09:06:00.233Z,4.97
2023-04-13T09:08:27.843Z,4.68
2023-04-13T09:10:57.204Z,3.08
2023-04-13T09:13:24.059Z,4.13
2023-04-13T09:15:51.297Z,3.40
2023-04-13T09:18:18.217Z,4.00
2023-04-13T09:20:55.730Z,3.80
2023-04-13T09:23:22.643Z,3.78
2023-04-13T09:25:50.463Z,3.25
2023-04-13T09:28:18.442Z,3.20
2023-04-13T09:30:46.343Z,3.28
2023-04-13T09:33:13.957Z,3.45
2023-04-13T09:35:41.632Z,3.55
2023-04-13T09:38:08.955Z,4.28
2023-04-13T09:40:41.056Z,3.17
2023-04-13T09:43:09.685Z,3.78
2023-04-13T09:45:41.914Z,3.65
2023-04-13T09:48:21.759Z,2.50
2023-04-13T09:51:02.062Z,2.97
2023-04-13T09:53:47.288Z,3.50
2023-04-13T09:58:45.727Z,3.00
2023-04-13T10:01:15.334Z,3.22
2023-04-13T10:03:42.630Z,3.08
2023-04-13T10:06:09.880Z,3.13
2023-04-13T10:08:40.732Z,2.90
2023-04-13T10:11:10.749Z,3.78
2023-04-13T10:13:41.526Z,2.67
2023-04-13T10:16:15.206Z,2.28
2023-04-13T10:19:12.420Z,2.97
2023-04-13T10:21:40.728Z,2.63
2023-04-13T10:24:12.251Z,3.22
2023-04-13T10:26:41.081Z,2.80
2023-04-13T10:29:08.509Z,2.90
2023-04-13T10:31:48.915Z,2.80
2023-04-13T10:34:32.336Z,2.50
2023-04-13T10:37:03.871Z,2.65
2023-04-13T10:39:32.305Z,2.65
2023-04-13T10:42:18.171Z,2.40
2023-04-13T10:44:53.035Z,1.85
2023-04-13T10:47:21.203Z,2.28
2023-04-13T10:49:48.872Z,2.15
2023-04-13T10:52:16.321Z,2.40
2023-04-13T10:54:43.370Z,2.67
2023-04-13T10:57:11.298Z,2.65
2023-04-13T10:59:56.341Z,3.05
2023-04-13T11:02:26.343Z,2.88
2023-04-13T11:04:53.553Z,2.10
2023-04-13T11:07:23.400Z,2.95
2023-04-13T11:09:53.155Z,2.42
2023-04-13T11:12:20.501Z,2.35
2023-04-13T11:14:47.836Z,2.25
2023-04-13T11:17:16.925Z,3.22
2023-04-13T11:19:49.814Z,4.25
2023-04-13T11:22:22.726Z,3.40
2023-04-13T11:24:51.005Z,3.75
2023-04-13T11:27:23.214Z,3.00
2023-04-13T11:30:06.881Z,3.20
2023-04-13T11:32:34.427Z,2.92
2023-04-13T11:35:15.130Z,3.00
2023-04-13T11:37:50.923Z,3.20
2023-04-13T11:40:21.495Z,2.60
2023-04-13T11:42:49.438Z,3.13
2023-04-13T11:45:16.482Z,3.70
2023-04-13T11:47:44.687Z,2.88
2023-04-13T11:50:14.149Z,3.10
2023-04-13T11:52:42.697Z,3.15
2023-04-13T11:55:21.697Z,2.83
2023-04-13T11:57:51.574Z,3.35
2023-04-13T12:00:24.722Z,2.63
2023-04-13T12:03:01.748Z,2.78
2023-04-13T12:05:31.325Z,2.97
2023-04-13T12:08:00.258Z,2.90
2023-04-13T12:10:37.449Z,3.38
2023-04-13T12:13:20.150Z,3.35
2023-04-13T12:16:06.212Z,2.70
2023-04-13T12:18:44.012Z,3.38
2023-04-13T12:21:17.868Z,4.15
2023-04-13T12:23:55.177Z,3.80
2023-04-13T12:28:55.454Z,3.85
2023-04-13T12:31:22.241Z,4.15
2023-04-13T12:33:49.386Z,9.32
2023-04-13T12:36:16.554Z,14.25
2023-04-13T12:38:43.741Z,13.85
2023-04-13T12:41:10.980Z,13.65
2023-04-13T12:43:38.017Z,10.45
2023-04-13T12:46:04.942Z,9.52
2023-04-13T12:48:32.084Z,12.52
2023-04-13T12:50:58.989Z,11.13
2023-04-13T12:53:26.352Z,9.85
2023-04-13T12:55:53.325Z,10.90
2023-04-13T12:58:20.570Z,11.75
2023-04-13T13:00:47.563Z,12.52
2023-04-13T13:03:15.304Z,11.18
2023-04-13T13:05:42.886Z,10.05
2023-04-13T13:08:10.001Z,9.20
2023-04-13T13:10:37.362Z,8.63
2023-04-13T13:13:06.215Z,7.57
2023-04-13T13:15:33.380Z,7.03
2023-04-13T13:18:04.549Z,6.28
2023-04-13T13:20:31.551Z,5.50
2023-04-13T13:22:58.702Z,5.03
2023-04-13T13:25:25.560Z,5.07
2023-04-13T13:30:22.647Z,4.07
2023-04-13T13:32:49.861Z,4.38
2023-04-13T13:35:16.798Z,4.93
2023-04-13T13:37:44.020Z,5.30
2023-04-13T13:40:13.612Z,5.00
2023-04-13T13:42:51.313Z,4.45
2023-04-13T13:45:18.917Z,4.82
2023-04-13T13:47:53.509Z,4.55
2023-04-13T13:50:21.757Z,5.03
2023-04-13T13:53:02.311Z,5.60
2023-04-13T13:55:29.681Z,4.57
2023-04-13T13:57:57.202Z,4.85
2023-04-13T14:00:24.615Z,5.35
2023-04-13T14:02:52.037Z,6.03
2023-04-13T14:05:19.032Z,4.85
2023-04-13T14:07:46.288Z,5.15
2023-04-13T14:10:13.352Z,4.93
2023-04-13T14:12:43.946Z,5.45
2023-04-13T14:15:12.347Z,4.65
2023-04-13T14:17:39.703Z,5.30
2023-04-13T14:20:14.075Z,4.82
2023-04-13T14:22:41.845Z,4.53
2023-04-13T14:25:11.982Z,4.53
2023-04-13T14:27:39.192Z,4.30
2023-04-13T14:30:06.681Z,4.22
2023-04-13T14:32:33.882Z,4.40
2023-04-13T14:35:00.823Z,4.15
2023-04-13T14:37:28.191Z,4.20
2023-04-13T14:39:55.188Z,5.03
2023-04-13T14:42:42.848Z,4.38
2023-04-13T14:45:29.689Z,5.10
2023-04-13T14:47:56.906Z,5.50
2023-04-13T14:50:24.311Z,4.78
2023-04-13T14:52:52.438Z,5.20
2023-04-13T14:55:19.510Z,4.65
2023-04-13T14:57:47.174Z,6.63
2023-04-13T15:00:21.849Z,6.50
2023-04-13T15:02:52.659Z,6.07
2023-04-13T15:05:20.394Z,7.00
2023-04-13T15:07:48.507Z,7.15
2023-04-13T15:10:16.246Z,6.20
2023-04-13T15:12:43.553Z,7.07
2023-04-13T15:15:10.850Z,6.95
2023-04-13T15:17:38.037Z,6.47
2023-04-13T15:20:07.503Z,6.68
2023-04-13T15:22:36.272Z,6.93
2023-04-13T15:25:03.516Z,6.03
2023-04-13T15:27:30.993Z,5.55
2023-04-13T15:29:59.184Z,7.25
2023-04-13T15:32:26.426Z,6.75
2023-04-13T15:34:53.786Z,6.45
2023-04-13T15:37:21.227Z,6.40
2023-04-13T15:39:47.985Z,6.18
2023-04-13T15:42:15.679Z,6.18
2023-04-13T15:44:42.907Z,6.28
2023-04-13T15:47:09.945Z,5.72
2023-04-13T15:49:36.712Z,5.97
2023-04-13T15:52:04.199Z,6.10
2023-04-13T15:54:31.304Z,6.30
2023-04-13T15:56:58.459Z,5.85
2023-04-13T15:59:26.895Z,7.25
2023-04-13T16:01:54.175Z,7.28
2023-04-13T16:04:21.459Z,7.32
2023-04-13T16:07:05.084Z,7.82
2023-04-13T16:09:36.735Z,8.73
2023-04-13T16:12:07.772Z,7.88
2023-04-13T16:14:45.076Z,7.47
2023-04-13T16:17:14.837Z,8.07
2023-04-13T16:19:42.633Z,8.55
2023-04-13T16:22:10.557Z,7.90
2023-04-13T16:24:37.880Z,8.15
2023-04-13T16:27:05.064Z,7.53
2023-04-13T16:29:32.666Z,7.65
2023-04-13T16:31:59.828Z,6.85
2023-04-13T16:34:27.929Z,6.72
2023-04-13T16:36:55.040Z,6.75
2023-04-13T16:39:22.491Z,7.10
2023-04-13T16:41:50.212Z,7.30
2023-04-13T16:44:17.134Z,6.93
2023-04-13T16:46:44.289Z,6.55
2023-04-13T16:49:11.386Z,6.30
2023-04-13T16:51:38.465Z,6.35
2023-04-13T16:54:06.525Z,7.25
2023-04-13T16:56:33.682Z,6.70
2023-04-13T16:59:01.507Z,6.72
2023-04-13T17:01:29.472Z,6.78
2023-04-13T17:03:56.693Z,6.55
2023-04-13T17:06:23.872Z,6.93
2023-04-13T17:08:50.776Z,8.05
2023-04-13T17:11:17.936Z,8.20
2023-04-13T17:13:44.942Z,6.90
2023-04-13T17:16:12.105Z,7.28
2023-04-13T17:18:39.021Z,6.35
2023-04-13T17:21:06.148Z,6.43
2023-04-13T17:23:32.943Z,7.15
2023-04-13T17:26:00.119Z,6.35
2023-04-13T17:28:27.154Z,6.88
2023-04-13T17:30:54.433Z,5.63
2023-04-13T17:33:21.396Z,6.65
2023-04-13T17:35:53.593Z,6.70
2023-04-13T17:38:20.432Z,6.05
2023-04-13T17:40:47.578Z,6.03
2023-04-13T17:43:14.648Z,6.13
2023-04-13T17:45:42.029Z,6.28
2023-04-13T17:48:08.919Z,5.93
2023-04-13T17:50:36.010Z,6.15
2023-04-13T17:53:04.243Z,6.07
2023-04-13T17:55:31.558Z,5.93
2023-04-13T17:57:58.317Z,5.70
2023-04-13T18:00:27.763Z,5.85
2023-04-13T18:02:55.163Z,5.88
2023-04-13T18:05:22.437Z,5.45
2023-04-13T18:07:49.478Z,6.22
2023-04-13T18:10:16.709Z,6.05
2023-04-13T18:12:43.622Z,5.60
2023-04-13T18:15:10.868Z,6.00
2023-04-13T18:17:38.184Z,5.43
2023-04-13T18:20:06.034Z,6.10
2023-04-13T18:22:32.948Z,5.90
2023-04-13T18:25:00.325Z,5.55
2023-04-13T18:27:27.740Z,5.85
2023-04-13T18:29:55.265Z,6.00
2023-04-13T18:32:25.117Z,5.82
2023-04-13T18:34:52.348Z,5.25
2023-04-13T18:37:19.270Z,5.88
2023-04-13T18:39:46.538Z,6.03
2023-04-13T18:42:13.415Z,5.30
2023-04-13T18:44:40.592Z,5.70
2023-04-13T18:47:07.385Z,6.05
2023-04-13T18:49:34.459Z,5.88
2023-04-13T18:52:01.430Z,5.90
2023-04-13T18:54:29.425Z,6.25
2023-04-13T18:56:56.230Z,5.05
2023-04-13T18:59:23.308Z,5.50
2023-04-13T19:01:50.215Z,6.30
2023-04-13T19:04:17.560Z,5.57
2023-04-13T19:06:44.456Z,6.15
2023-04-13T19:09:11.596Z,5.13
2023-04-13T19:11:46.413Z,6.03
2023-04-13T19:14:13.551Z,5.50
2023-04-13T19:16:41.590Z,5.32
2023-04-13T19:19:08.958Z,6.20
2023-04-13T19:21:35.750Z,5.07
2023-04-13T19:24:02.992Z,5.43
2023-04-13T19:26:30.544Z,5.25
2023-04-13T19:28:57.741Z,5.90
2023-04-13T19:31:24.597Z,6.20
2023-04-13T19:33:51.862Z,6.93
2023-04-13T19:36:18.624Z,6.93
2023-04-13T19:38:47.072Z,6.35
2023-04-13T19:41:13.927Z,6.97
2023-04-13T19:43:41.204Z,6.72
2023-04-13T19:46:08.036Z,8.00
2023-04-13T19:48:35.433Z,8.25
2023-04-13T19:51:02.766Z,7.70
2023-04-13T19:53:29.868Z,7.63
2023-04-13T19:55:57.050Z,7.78
2023-04-13T19:58:24.176Z,7.20
2023-04-13T20:00:50.928Z,8.48
2023-04-13T20:03:20.299Z,8.90
2023-04-13T20:05:48.176Z,8.50
2023-04-13T20:08:16.498Z,8.85
2023-04-13T20:10:43.383Z,8.95
2023-04-13T20:13:10.976Z,8.77
2023-04-13T20:15:37.934Z,9.35
2023-04-13T20:18:07.321Z,9.30
2023-04-13T20:20:35.715Z,8.88
2023-04-13T20:23:02.873Z,9.30
2023-04-13T20:25:29.679Z,8.52
2023-04-13T20:27:56.956Z,8.85
2023-04-13T20:30:24.067Z,9.40
2023-04-13T20:32:51.222Z,9.27
2023-04-13T20:35:18.022Z,9.43
2023-04-13T20:37:45.170Z,10.63
2023-04-13T20:40:12.057Z,9.98
2023-04-13T20:42:45.315Z,9.25
2023-04-13T20:45:15.123Z,10.32
2023-04-13T20:47:42.686Z,10.80
2023-04-13T20:50:10.504Z,11.10
2023-04-13T20:52:37.644Z,10.48
2023-04-13T20:55:04.620Z,10.82
2023-04-13T20:57:31.824Z,10.40
2023-04-13T20:59:58.626Z,10.15
2023-04-13T21:02:26.187Z,9.15
2023-04-13T21:04:54.011Z,9.55
2023-04-13T21:07:22.296Z,9.82
2023-04-13T21:09:49.071Z,10.32
2023-04-13T21:12:17.058Z,10.23
2023-04-13T21:14:43.815Z,9.57
2023-04-13T21:17:11.774Z,10.50
2023-04-13T21:19:38.551Z,9.25
2023-04-13T21:22:06.111Z,9.40
2023-04-13T21:24:32.885Z,9.63
2023-04-13T21:27:00.034Z,9.50
2023-04-13T21:29:26.898Z,9.02
2023-04-13T21:31:54.009Z,9.43
2023-04-13T21:34:22.557Z,9.45
2023-04-13T21:36:51.638Z,9.60
2023-04-13T21:39:18.774Z,9.38
2023-04-13T21:41:45.933Z,8.65
2023-04-13T21:44:26.490Z,8.95
2023-04-13T21:46:55.958Z,8.43
2023-04-13T21:49:22.886Z,8.95
2023-04-13T21:51:50.049Z,9.60
2023-04-13T21:54:16.810Z,8.73
2023-04-13T21:56:43.898Z,10.10
2023-04-13T21:59:10.688Z,8.15
2023-04-13T22:01:37.813Z,8.95
2023-04-13T22:04:04.762Z,9.27
2023-04-13T22:06:32.691Z,9.15
2023-04-13T22:08:59.759Z,9.07
2023-04-13T22:11:27.161Z,8.90
2023-04-13T22:13:53.935Z,9.35
2023-04-13T22:16:21.142Z,9.98
2023-04-13T22:18:48.025Z,9.18
2023-04-13T22:21:15.396Z,9.13
2023-04-13T22:23:42.183Z,9.13
2023-04-13T22:26:09.241Z,9.07
2023-04-13T22:28:36.025Z,9.77
2023-04-13T22:31:09.308Z,9.20
2023-04-13T22:33:36.526Z,9.57
2023-04-13T22:36:04.624Z,10.57
2023-04-13T22:38:31.441Z,10.23
2023-04-13T22:40:58.547Z,10.68
2023-04-13T22:43:25.379Z,10.60
2023-04-13T22:45:58.965Z,10.02
2023-04-13T22:48:26.979Z,9.93
2023-04-13T22:50:54.176Z,10.35
2023-04-13T22:53:21.040Z,9.77
2023-04-13T22:55:48.081Z,9.88
2023-04-13T22:58:14.829Z,9.60
2023-04-13T23:00:41.882Z,9.50
2023-04-13T23:03:08.746Z,10.13
2023-04-13T23:05:35.949Z,11.90
2023-04-13T23:08:02.794Z,10.85
2023-04-13T23:10:31.677Z,10.98
2023-04-13T23:12:58.569Z,10.43
2023-04-13T23:15:25.726Z,11.50
2023-04-13T23:20:40.625Z,10.93
2023-04-13T23:23:07.378Z,11.57
2023-04-13T23:25:34.525Z,11.45
2023-04-13T23:28:01.273Z,11.50
2023-04-13T23:30:28.410Z,10.50
2023-04-13T23:32:55.645Z,10.88
2023-04-13T23:35:22.748Z,11.10
2023-04-13T23:37:49.518Z,10.32
2023-04-13T23:40:16.678Z,10.90
2023-04-13T23:42:43.414Z,10.77
2023-04-13T23:45:10.918Z,11.02
2023-04-13T23:47:38.050Z,10.93
2023-04-13T23:50:06.193Z,10.48
2023-04-13T23:52:33.137Z,10.02
2023-04-13T23:55:00.212Z,11.75
2023-04-13T23:57:27.089Z,10.32
2023-04-13T23:59:57.369Z,10.70
